Time;durP1;ratioP1;P1;durP2;ratioP2;P2;SDS_P1;SDS_P2;PMS_P1;PMS_P2;Temp;Humidity;BMP_temperature;BMP_pressure;BME280_temperature;BME280_humidity;BME280_pressure;Samples;Min_cycle;Max_cycle;Signal;HPM_P1;HPM_P2
2022/01/14 05:30:41;;;;;;;;;33.50;26.25;;;;;5.79;65.89;103232.03;5059583;27;45519;-75
2022/01/14 05:33:09;;;;;;;;;45.50;35.00;;;;;5.76;66.50;103231.13;5054161;28;45400;-75
2022/01/14 05:35:34;;;;;;;;;33.75;32.00;;;;;5.81;66.19;103238.28;5054239;28;45356;-77
2022/01/14 05:38:00;;;;;;;;;39.25;33.50;;;;;5.81;66.16;103243.59;5053881;28;45386;-76
2022/01/14 05:40:27;;;;;;;;;37.00;24.50;;;;;5.84;65.99;103253.41;5053270;28;45303;-77
2022/01/14 05:42:52;;;;;;;;;35.25;31.00;;;;;5.78;66.32;103238.25;5050335;28;45491;-76
2022/01/14 05:45:18;;;;;;;;;39.50;31.50;;;;;5.81;66.02;103258.69;5053373;28;45435;-78
2022/01/14 05:47:44;;;;;;;;;42.25;36.00;;;;;5.80;66.05;103251.56;5052686;28;46390;-75
2022/01/14 05:50:21;;;;;;;;;35.50;30.75;;;;;5.80;65.92;103263.09;5054023;28;45455;-78
2022/01/14 05:52:47;;;;;;;;;36.25;28.25;;;;;5.76;66.68;103249.75;5052935;28;45387;-76
2022/01/14 05:55:14;;;;;;;;;46.50;34.50;;;;;5.79;66.62;103265.75;5053924;28;45499;-77
2022/01/14 05:57:40;;;;;;;;;48.00;35.50;;;;;5.68;66.63;103241.66;5052867;28;45493;-76
2022/01/14 06:00:12;;;;;;;;;48.00;35.25;;;;;5.76;66.22;103258.63;5053548;28;45376;-75
2022/01/14 06:02:37;;;;;;;;;36.75;34.50;;;;;5.76;66.89;103266.63;5052839;28;45381;-76
2022/01/14 06:05:03;;;;;;;;;50.50;38.50;;;;;5.75;66.16;103261.25;5053298;28;45440;-77
2022/01/14 06:07:28;;;;;;;;;42.50;35.75;;;;;5.67;66.73;103253.19;5054407;28;46041;-76
2022/01/14 06:09:54;;;;;;;;;52.25;40.25;;;;;5.65;66.76;103257.56;5055000;28;45414;-76
2022/01/14 06:12:19;;;;;;;;;51.50;40.25;;;;;5.57;66.89;103240.59;5057720;28;45375;-75
2022/01/14 06:14:45;;;;;;;;;46.50;38.75;;;;;5.65;66.98;103246.94;5062018;28;45461;-75
2022/01/14 06:17:10;;;;;;;;;44.00;35.75;;;;;5.59;66.91;103233.53;5051402;28;46367;-76
2022/01/14 06:19:35;;;;;;;;;45.50;38.25;;;;;5.69;66.67;103256.75;5052464;28;45620;-82
2022/01/14 06:22:01;;;;;;;;;50.50;37.25;;;;;5.50;66.76;103213.03;5053194;28;45406;-78
2022/01/14 06:24:26;;;;;;;;;40.00;35.00;;;;;5.65;66.68;103244.28;5039080;28;45509;-77
2022/01/14 06:26:51;;;;;;;;;34.00;28.50;;;;;5.74;66.65;103254.16;5056962;28;45521;-75
2022/01/14 06:29:17;;;;;;;;;38.25;33.00;;;;;5.76;66.97;103249.75;5057045;28;45336;-75
2022/01/14 06:31:42;;;;;;;;;38.50;32.00;;;;;5.66;66.66;103224.78;5037882;28;45414;-75
2022/01/14 06:34:07;;;;;;;;;40.00;32.00;;;;;5.78;67.08;103245.34;5056300;28;45265;-77
2022/01/14 06:36:33;;;;;;;;;33.75;29.25;;;;;5.71;66.68;103234.59;5056142;28;45514;-80
2022/01/14 06:38:58;;;;;;;;;36.00;28.50;;;;;5.66;66.18;103214.13;5057170;28;45328;-79
2022/01/14 06:41:24;;;;;;;;;47.50;32.75;;;;;5.81;66.35;103235.63;5056984;28;45595;-76
2022/01/14 06:43:49;;;;;;;;;42.00;31.25;;;;;5.72;66.51;103214.19;5039434;28;46267;-78
2022/01/14 06:46:14;;;;;;;;;43.50;36.25;;;;;5.79;66.35;103220.50;5061212;28;45959;-82
2022/01/14 06:48:40;;;;;;;;;30.50;26.50;;;;;5.89;66.33;103239.31;5060929;28;45145;-77
2022/01/14 06:51:05;;;;;;;;;42.50;35.75;;;;;5.50;66.43;103173.13;5057163;28;45517;-81
2022/01/14 06:53:31;;;;;;;;;36.00;31.50;;;;;5.97;66.54;103253.63;5057869;28;45398;-79
2022/01/14 06:55:56;;;;;;;;;39.00;33.75;;;;;5.91;66.36;103229.59;5056377;28;45441;-77
2022/01/14 06:58:22;;;;;;;;;32.00;31.00;;;;;5.92;66.71;103226.06;5056359;28;45399;-76
2022/01/14 07:00:47;;;;;;;;;32.75;31.50;;;;;5.87;66.65;103216.19;5056771;28;45472;-78
2022/01/14 07:03:12;;;;;;;;;35.50;30.75;;;;;6.01;66.58;103243.91;5056356;28;45354;-81
2022/01/14 07:05:38;;;;;;;;;34.75;33.00;;;;;6.05;66.56;103237.75;5056563;28;45505;-77
2022/01/14 07:08:03;;;;;;;;;39.25;31.25;;;;;5.97;66.70;103224.31;5056146;28;45361;-77
2022/01/14 07:10:29;;;;;;;;;34.25;30.00;;;;;6.01;66.43;103222.63;5056082;28;45598;-76
2022/01/14 07:12:54;;;;;;;;;33.25;31.50;;;;;6.06;66.39;103237.75;5060388;28;45471;-74
2022/01/14 07:15:21;;;;;;;;;38.00;32.00;;;;;6.02;66.26;103224.41;5060750;28;45484;-76
2022/01/14 07:17:46;;;;;;;;;41.25;30.75;;;;;6.02;66.34;103216.41;5038042;28;45361;-75
2022/01/14 07:20:14;;;;;;;;;33.50;26.75;;;;;6.12;65.63;103226.31;5056551;28;45244;-76
2022/01/14 07:22:41;;;;;;;;;41.50;33.00;;;;;6.14;66.31;103229.88;5056075;28;45283;-75
2022/01/14 07:25:08;;;;;;;;;38.25;34.25;;;;;6.12;65.89;103214.75;5056725;28;45791;-75
2022/01/14 07:27:33;;;;;;;;;32.25;27.75;;;;;6.16;66.12;103224.56;5057767;28;45548;-76
2022/01/14 07:29:59;;;;;;;;;33.75;31.00;;;;;6.19;65.56;103229.94;5053990;28;45485;-75
2022/01/14 07:32:25;;;;;;;;;37.25;30.75;;;;;6.17;65.76;103221.03;5051382;28;45432;-75
2022/01/14 07:34:51;;;;;;;;;32.50;28.50;;;;;6.22;65.26;103232.63;5051531;28;45811;-76
2022/01/14 07:37:18;;;;;;;;;38.50;30.25;;;;;6.19;65.37;103228.16;5059648;28;45485;-77
2022/01/14 07:39:43;;;;;;;;;36.25;30.50;;;;;6.23;65.27;103229.06;5057515;28;45974;-75
2022/01/14 07:42:09;;;;;;;;;41.00;33.50;;;;;6.19;64.95;103213.97;5058986;28;45473;-75
2022/01/14 07:44:34;;;;;;;;;33.00;29.25;;;;;6.23;65.18;103219.31;5071170;27;47159;-76
2022/01/14 07:47:00;;;;;;;;;33.75;27.25;;;;;6.25;64.76;103225.56;5057426;28;45485;-77
2022/01/14 07:49:26;;;;;;;;;41.25;35.75;;;;;6.19;64.75;103222.84;5056580;28;45590;-73
2022/01/14 07:51:52;;;;;;;;;37.00;32.25;;;;;6.23;64.63;103234.41;5057412;28;46069;-77
2022/01/14 07:54:17;;;;;;;;;34.75;32.00;;;;;6.24;65.02;103245.09;5051798;28;47127;-78
2022/01/14 07:56:47;;;;;;;;;32.25;28.25;;;;;6.22;65.05;103248.59;5055202;28;45511;-75
2022/01/14 07:59:14;;;;;;;;;39.25;30.75;;;;;6.21;64.51;103238.84;5055628;28;45509;-75
2022/01/14 08:01:41;;;;;;;;;35.50;23.25;;;;;6.22;64.68;103244.16;5054351;28;45399;-76
2022/01/14 08:04:07;;;;;;;;;40.25;31.00;;;;;6.21;64.88;103245.03;5057511;28;46175;-75
2022/01/14 08:06:37;;;;;;;;;29.00;26.00;;;;;6.15;64.47;103234.31;5052656;28;45469;-76
2022/01/14 08:09:02;;;;;;;;;32.50;24.50;;;;;6.19;64.75;103246.81;5057388;28;45371;-78
2022/01/14 08:11:28;;;;;;;;;43.25;32.25;;;;;6.19;65.18;103246.81;5052756;28;45509;-78
2022/01/14 08:13:53;;;;;;;;;37.50;32.25;;;;;6.17;64.93;103237.91;5064338;28;45332;-78
2022/01/14 08:16:18;;;;;;;;;34.25;31.50;;;;;6.19;64.52;103256.56;5052305;28;45392;-77
2022/01/14 08:18:44;;;;;;;;;41.25;32.25;;;;;6.19;65.02;103254.81;5053973;28;45464;-77
2022/01/14 08:21:09;;;;;;;;;20.75;16.50;;;;;6.19;64.73;103246.81;5053421;28;45462;-75
2022/01/14 08:23:35;;;;;;;;;41.50;37.75;;;;;6.05;64.96;103219.09;5031386;28;48268;-76
2022/01/14 08:26:00;;;;;;;;;39.25;36.50;;;;;6.13;65.07;103232.50;5053095;28;45413;-73
2022/01/14 08:28:27;;;;;;;;;42.50;34.00;;;;;6.18;64.99;103250.34;5063130;28;45721;-76
2022/01/14 08:30:53;;;;;;;;;53.50;39.00;;;;;6.21;65.36;103250.38;5050951;28;45537;-75
2022/01/14 08:33:19;;;;;;;;;36.25;30.50;;;;;6.23;64.76;103256.59;5052609;28;45523;-76
2022/01/14 08:35:46;;;;;;;;;42.50;35.50;;;;;6.23;64.26;103255.72;5051454;28;45370;-75
2022/01/14 08:38:12;;;;;;;;;38.75;34.00;;;;;6.26;63.98;103251.34;5051046;28;45488;-77
2022/01/14 08:40:37;;;;;;;;;33.25;30.25;;;;;6.19;63.94;103244.16;5051745;28;45477;-77
2022/01/14 08:43:03;;;;;;;;;45.75;35.50;;;;;6.27;63.85;103262.88;5033778;28;46385;-77
2022/01/14 08:45:29;;;;;;;;;36.75;30.75;;;;;6.26;63.55;103256.66;5034269;28;45470;-75
2022/01/14 08:47:55;;;;;;;;;57.00;39.75;;;;;6.28;63.94;103260.25;5051391;28;45446;-76
2022/01/14 08:50:26;;;;;;;;;48.00;33.25;;;;;6.26;64.05;103253.09;5053258;28;45433;-76
2022/01/14 08:52:51;;;;;;;;;42.25;31.75;;;;;6.30;63.41;103266.47;5052010;28;46655;-76
2022/01/14 08:55:18;;;;;;;;;38.25;36.00;;;;;6.31;63.45;103267.34;5051970;28;45339;-79
2022/01/14 08:57:44;;;;;;;;;47.75;36.25;;;;;6.18;63.16;103247.69;5035586;28;45476;-77
2022/01/14 09:00:10;;;;;;;;;39.75;36.00;;;;;6.33;63.63;103260.28;5050549;28;45561;-76
2022/01/14 09:02:36;;;;;;;;;62.25;43.75;;;;;6.33;63.64;103250.53;5052842;28;46262;-76
2022/01/14 09:05:02;;;;;;;;;41.25;32.25;;;;;6.37;63.15;103248.81;5052115;28;45757;-77
2022/01/14 09:07:28;;;;;;;;;45.00;31.25;;;;;6.35;63.41;103237.22;5051551;28;46006;-76
2022/01/14 09:09:54;;;;;;;;;44.50;33.00;;;;;6.23;62.35;103221.97;5051825;28;45880;-76
2022/01/14 09:12:20;;;;;;;;;42.25;32.25;;;;;6.42;62.55;103252.41;5052743;28;45376;-76
2022/01/14 09:14:46;;;;;;;;;47.75;33.25;;;;;6.11;62.54;103195.22;5052933;28;45380;-75
2022/01/14 09:17:12;;;;;;;;;37.25;35.25;;;;;6.41;62.38;103239.94;5053284;28;45389;-74
2022/01/14 09:19:39;;;;;;;;;42.00;35.00;;;;;6.45;62.23;103245.34;5053235;28;45418;-75
2022/01/14 09:22:04;;;;;;;;;35.50;30.50;;;;;6.54;62.65;103256.97;5053052;28;45382;-76
2022/01/14 09:24:29;;;;;;;;;37.00;33.50;;;;;6.53;62.67;103239.19;5053020;28;45413;-77
2022/01/14 09:26:55;;;;;;;;;50.75;40.00;;;;;6.58;62.24;103240.13;5053315;28;45354;-76
2022/01/14 09:29:20;;;;;;;;;60.25;37.00;;;;;6.55;62.25;103229.47;5052604;28;45367;-76
2022/01/14 09:31:45;;;;;;;;;53.25;40.00;;;;;6.65;61.77;103244.63;5052733;28;45425;-77
2022/01/14 09:34:11;;;;;;;;;42.00;38.00;;;;;6.60;62.24;103228.63;5052378;28;45283;-75
2022/01/14 09:36:36;;;;;;;;;42.25;34.25;;;;;6.61;61.72;103217.09;5053004;28;45396;-75
2022/01/14 09:39:03;;;;;;;;;45.50;37.00;;;;;6.71;61.09;103234.97;5052002;28;45675;-75
2022/01/14 09:41:29;;;;;;;;;37.50;28.50;;;;;6.64;61.08;103216.19;5052641;28;45572;-76
2022/01/14 09:43:55;;;;;;;;;44.50;36.50;;;;;6.70;60.65;103225.16;5052985;28;45423;-76
2022/01/14 09:46:20;;;;;;;;;52.25;39.00;;;;;6.76;60.76;103242.97;5037575;28;45292;-76
2022/01/14 09:48:49;;;;;;;;;43.00;36.75;;;;;6.78;60.37;103238.56;5052707;28;45418;-76
2022/01/14 09:51:14;;;;;;;;;53.50;38.00;;;;;6.74;60.71;103226.06;5052877;28;45720;-76
2022/01/14 09:53:40;;;;;;;;;43.50;36.75;;;;;6.75;61.02;103231.44;5051984;28;45406;-76
2022/01/14 09:56:05;;;;;;;;;38.50;37.00;;;;;6.84;60.82;103246.63;5053025;28;45379;-75
2022/01/14 09:58:36;;;;;;;;;52.25;39.25;;;;;6.85;60.76;103240.41;5053182;28;45309;-77
2022/01/14 10:01:10;;;;;;;;;52.75;39.75;;;;;6.90;60.13;103246.66;5056833;28;47071;-76
2022/01/14 10:03:47;;;;;;;;;46.25;39.50;;;;;6.77;60.27;103221.69;5055975;28;45491;-75
2022/01/14 10:06:53;;;;;;;;;50.75;39.25;;;;;6.97;60.98;103250.31;5043991;28;45339;-73
2022/01/14 10:09:21;;;;;;;;;43.75;37.75;;;;;7.02;60.69;103257.47;5055431;28;45462;-75
2022/01/14 10:12:13;;;;;;;;;52.25;37.50;;;;;7.03;60.39;103259.25;5055881;28;47039;-77
2022/01/14 10:14:56;;;;;;;;;63.67;45.00;;;;;7.03;59.58;103258.34;5055970;28;45877;-76
2022/01/14 10:17:22;;;;;;;;;53.50;37.00;;;;;7.06;60.11;103259.25;5056233;28;45988;-76
2022/01/14 10:19:48;;;;;;;;;45.50;40.25;;;;;7.08;59.58;103261.94;5046641;28;45691;-76
2022/01/14 10:22:25;;;;;;;;;44.75;38.00;;;;;7.09;60.10;103253.97;5055331;28;45356;-75
2022/01/14 10:24:55;;;;;;;;;48.75;38.00;;;;;7.18;59.66;103261.16;5056029;28;45355;-75
2022/01/14 10:27:32;;;;;;;;;46.75;38.75;;;;;7.21;59.33;103263.84;5055990;28;45603;-78
2022/01/14 10:30:16;;;;;;;;;42.75;37.75;;;;;7.23;59.32;103257.63;5055226;28;45362;-74
2022/01/14 10:32:43;;;;;;;;;48.50;39.25;;;;;7.24;59.42;103247.84;5055174;28;45647;-74
2022/01/14 10:35:12;;;;;;;;;55.00;40.50;;;;;7.16;58.83;103229.09;5055180;28;45432;-74
2022/01/14 10:37:37;;;;;;;;;46.75;38.00;;;;;6.94;59.09;103179.16;5055385;28;45455;-72
2022/01/14 10:40:17;;;;;;;;;55.50;41.00;;;;;7.31;59.48;103252.38;5054483;28;45355;-74
2022/01/14 10:42:43;;;;;;;;;55.50;42.00;;;;;7.33;59.33;103247.91;5055704;28;45394;-74
2022/01/14 10:45:25;;;;;;;;;42.75;31.50;;;;;7.37;58.97;103249.75;5055003;28;45280;-73
2022/01/14 10:48:08;;;;;;;;;49.50;40.00;;;;;7.43;58.43;103241.78;5054947;28;45354;-74
2022/01/14 10:50:41;;;;;;;;;54.00;41.25;;;;;7.45;58.12;103225.78;5055288;28;45454;-73
2022/01/14 10:53:21;;;;;;;;;47.75;41.75;;;;;7.49;58.67;103223.13;5054614;28;45750;-72
2022/01/14 10:55:49;;;;;;;;;53.50;41.25;;;;;7.60;58.79;103226.75;5054016;28;45540;-71
2022/01/14 10:58:16;;;;;;;;;51.33;39.00;;;;;7.56;58.63;103200.94;5053109;28;45457;-78
2022/01/14 11:00:45;;;;;;;;;58.33;44.00;;;;;7.58;58.43;103193.81;5055629;28;45268;-75
2022/01/14 11:03:11;;;;;;;;;56.25;44.25;;;;;7.75;58.04;103212.59;5055340;28;46023;-78
2022/01/14 11:05:37;;;;;;;;;59.00;44.00;;;;;7.90;57.90;103220.72;5055575;28;45421;-81
2022/01/14 11:08:04;;;;;;;;;57.00;44.00;;;;;7.86;58.15;103193.97;5054961;28;45688;-79
2022/01/14 11:10:33;;;;;;;;;57.67;46.00;;;;;8.07;57.82;103225.22;5041435;28;46112;-77
2022/01/14 11:13:01;;;;;;;;;56.00;44.00;;;;;8.09;56.16;103205.63;5054615;28;45509;-83
2022/01/14 11:15:28;;;;;;;;;58.67;46.00;;;;;8.16;56.12;103211.91;5042509;28;45671;-82
2022/01/14 11:17:56;;;;;;;;;47.75;40.00;;;;;8.30;55.95;103210.16;5058671;28;45377;-75
2022/01/14 11:20:30;;;;;;;;;59.33;46.00;;;;;8.35;54.98;103213.75;5061137;28;45555;-77
2022/01/14 11:23:14;;;;;;;;;54.67;42.67;;;;;8.38;55.60;103205.75;5038117;28;47335;-76
2022/01/14 11:26:01;;;;;;;;;53.00;42.50;;;;;8.86;55.47;103204.03;5040870;28;45402;-75
2022/01/14 11:28:34;;;;;;;;;52.50;41.00;;;;;9.70;52.51;103188.72;5056524;28;45536;-75
2022/01/14 11:31:00;;;;;;;;;54.25;44.50;;;;;10.69;50.03;103165.00;5056754;28;45576;-76
2022/01/14 11:33:40;;;;;;;;;46.00;40.75;;;;;12.07;47.04;103178.81;5055708;28;46172;-74
2022/01/14 11:36:07;;;;;;;;;57.75;45.25;;;;;13.20;44.93;103181.50;5055728;28;45516;-75
2022/01/14 11:38:35;;;;;;;;;50.00;41.75;;;;;14.24;42.50;103166.81;5055791;28;45382;-73
2022/01/14 11:41:01;;;;;;;;;53.00;45.00;;;;;15.09;39.33;103172.84;5061413;28;45534;-74
2022/01/14 11:43:51;;;;;;;;;49.75;42.00;;;;;15.84;38.61;103151.84;5063608;28;46721;-74
2022/01/14 11:46:44;;;;;;;;;56.50;44.00;;;;;16.03;37.91;103150.38;5065260;28;45330;-74
2022/01/14 11:49:33;;;;;;;;;57.50;44.25;;;;;15.65;38.82;103146.09;5062101;28;45443;-74
2022/01/14 11:52:00;;;;;;;;;53.75;44.00;;;;;15.14;39.35;103145.72;5065123;28;45506;-74
2022/01/14 11:54:41;;;;;;;;;52.25;42.50;;;;;14.52;39.53;103139.22;5052194;28;45498;-76
2022/01/14 11:57:07;;;;;;;;;53.25;41.75;;;;;14.00;39.74;103146.66;5053949;28;45547;-76
2022/01/14 11:59:34;;;;;;;;;46.50;36.25;;;;;13.50;40.58;103142.34;5055533;28;45208;-74
2022/01/14 12:01:59;;;;;;;;;50.75;42.00;;;;;12.88;41.56;103108.47;5055847;28;45285;-73
2022/01/14 12:05:02;;;;;;;;;49.25;40.25;;;;;12.34;42.84;103097.69;5056185;28;46349;-71
2022/01/14 12:07:28;;;;;;;;;53.25;40.00;;;;;12.06;43.54;103117.88;5056294;28;45422;-73
2022/01/14 12:10:09;;;;;;;;;53.75;43.50;;;;;11.67;44.31;103128.19;5038445;28;45350;-73
2022/01/14 12:12:35;;;;;;;;;48.50;38.00;;;;;11.42;45.10;103129.38;5037003;28;46919;-75
2022/01/14 12:15:03;;;;;;;;;50.25;41.75;;;;;11.23;45.29;103122.44;5054695;28;46248;-72
2022/01/14 12:17:40;;;;;;;;;52.75;38.50;;;;;10.95;45.46;103105.75;5055042;28;45304;-74
2022/01/14 12:20:11;;;;;;;;;46.25;36.75;;;;;10.88;45.59;103118.34;5054707;28;45351;-74
2022/01/14 12:22:37;;;;;;;;;42.50;37.75;;;;;10.76;46.49;103115.75;5053984;28;45316;-73
2022/01/14 12:25:03;;;;;;;;;54.25;42.25;;;;;10.61;46.53;103098.00;5055169;28;45497;-72
2022/01/14 12:27:40;;;;;;;;;35.00;32.75;;;;;10.44;47.21;103091.88;5055936;28;45237;-71
2022/01/14 12:30:11;;;;;;;;;52.75;42.25;;;;;10.37;47.08;103095.53;5055421;28;45368;-72
2022/01/14 12:32:41;;;;;;;;;46.00;38.00;;;;;10.28;47.62;103083.97;5046719;28;45506;-70
2022/01/14 12:35:18;;;;;;;;;53.50;41.00;;;;;10.11;47.88;103058.16;5051808;28;45802;-70
2022/01/14 12:37:50;;;;;;;;;48.75;39.25;;;;;10.16;47.41;103079.53;5052837;28;45431;-71
2022/01/14 12:40:26;;;;;;;;;44.00;38.75;;;;;10.16;47.05;103087.59;5052898;28;45364;-72
2022/01/14 12:42:59;;;;;;;;;45.50;37.25;;;;;10.09;48.04;103091.22;5053290;28;45600;-70
2022/01/14 12:45:34;;;;;;;;;45.50;37.00;;;;;10.01;47.89;103085.91;5053725;28;45982;-71
2022/01/14 12:51:20;;;;;;;;;48.75;37.25;;;;;9.90;48.85;103077.03;5034993;28;45488;-70
2022/01/14 12:53:54;;;;;;;;;48.50;36.00;;;;;9.65;48.23;103037.88;5052891;28;45597;-70
2022/01/14 12:56:22;;;;;;;;;53.00;44.00;;;;;9.84;48.18;103064.56;5052824;28;45672;-71
2022/01/14 12:58:55;;;;;;;;;48.75;39.25;;;;;9.80;48.60;103046.72;5052958;28;45315;-72
2022/01/14 13:01:26;;;;;;;;;41.25;35.25;;;;;9.83;48.72;103054.75;5052500;28;45502;-72
2022/01/14 13:03:54;;;;;;;;;43.75;37.25;;;;;9.79;48.51;103047.63;5052596;28;45932;-71
2022/01/14 13:06:19;;;;;;;;;37.50;34.75;;;;;9.76;48.71;103033.38;5043122;28;46324;-71
2022/01/14 13:08:57;;;;;;;;;41.25;33.75;;;;;9.75;48.46;103036.94;5052125;28;45471;-71
2022/01/14 13:11:24;;;;;;;;;40.50;35.00;;;;;9.80;48.74;103043.16;5053561;28;45407;-71
2022/01/14 13:14:02;;;;;;;;;46.00;37.00;;;;;9.75;48.82;103028.91;5055400;28;45402;-73
2022/01/14 13:16:42;;;;;;;;;51.50;39.75;;;;;9.79;49.54;103042.25;5052610;28;46253;-72
2022/01/14 13:19:29;;;;;;;;;51.75;41.00;;;;;9.84;49.24;103036.88;5052538;28;45380;-71
2022/01/14 13:21:55;;;;;;;;;42.50;35.25;;;;;9.84;49.45;103034.22;5034308;28;45574;-70
2022/01/14 13:24:21;;;;;;;;;43.75;38.75;;;;;9.83;48.64;103036.00;5052406;28;45563;-72
2022/01/14 13:27:00;;;;;;;;;41.75;37.50;;;;;9.65;48.64;102997.72;5052525;28;46034;-71
2022/01/14 13:29:26;;;;;;;;;49.75;40.25;;;;;9.73;49.10;103006.59;5052681;28;45410;-72
2022/01/14 13:31:51;;;;;;;;;54.25;40.50;;;;;9.83;48.64;103025.28;5034911;28;45549;-70
2022/01/14 13:34:17;;;;;;;;;41.50;38.50;;;;;9.78;48.75;103012.81;5058497;28;45414;-70
2022/01/14 13:36:43;;;;;;;;;46.75;36.00;;;;;9.84;49.00;103021.72;5059070;28;45357;-72
2022/01/14 13:39:09;;;;;;;;;48.00;37.00;;;;;9.77;49.07;103008.38;5061651;28;45589;-71
2022/01/14 13:41:35;;;;;;;;;50.00;39.50;;;;;9.85;49.05;103020.81;5057203;28;45447;-70
2022/01/14 13:44:19;;;;;;;;;45.75;38.50;;;;;9.88;49.12;103022.56;5059346;28;45421;-72
2022/01/14 13:46:55;;;;;;;;;46.75;37.75;;;;;9.80;48.95;102998.50;5059005;28;46130;-73
2022/01/14 13:49:21;;;;;;;;;41.00;35.25;;;;;9.88;48.84;103001.13;5058997;28;45499;-73
2022/01/14 13:52:07;;;;;;;;;47.50;35.25;;;;;9.93;49.75;103004.69;5058739;28;45598;-72
2022/01/14 13:54:32;;;;;;;;;48.75;38.00;;;;;9.89;49.19;102997.53;5058819;28;45937;-73
2022/01/14 13:57:17;;;;;;;;;42.25;36.00;;;;;9.93;48.76;102993.06;5059347;28;46115;-72
2022/01/14 13:59:44;;;;;;;;;51.25;38.50;;;;;9.86;49.39;102974.38;5058892;28;45516;-74
2022/01/14 14:02:11;;;;;;;;;38.75;35.00;;;;;9.93;49.36;102988.59;5057778;28;45461;-71
2022/01/14 14:04:46;;;;;;;;;48.00;37.00;;;;;9.97;48.86;102989.44;5059322;28;45378;-71
2022/01/14 14:07:14;;;;;;;;;36.75;26.00;;;;;9.96;49.48;102985.88;5059240;28;46255;-72
2022/01/14 14:09:51;;;;;;;;;40.50;37.25;;;;;9.90;48.71;102967.19;5059279;28;45347;-71
2022/01/14 14:12:39;;;;;;;;;51.50;39.25;;;;;9.93;49.16;102963.59;5059532;28;45415;-70
2022/01/14 14:18:09;;;;;;;;;39.50;35.75;;;;;10.09;49.31;102976.84;5004102;28;45630;-71
2022/01/14 14:20:37;;;;;;;;;48.00;37.75;;;;;10.10;49.17;102967.91;5063855;28;45614;-71
2022/01/14 14:23:22;;;;;;;;;43.75;37.50;;;;;10.12;49.47;102962.56;5066679;28;45372;-71
2022/01/14 14:25:50;;;;;;;;;49.50;33.00;;;;;10.22;49.30;102956.22;5058063;28;45517;-71
2022/01/14 14:28:16;;;;;;;;;38.25;35.75;;;;;10.55;48.60;102971.09;5058091;28;46094;-70
2022/01/14 14:30:50;;;;;;;;;49.75;38.75;;;;;10.94;48.10;102964.41;5057194;28;45464;-70
2022/01/14 14:33:17;;;;;;;;;51.25;39.25;;;;;11.33;47.38;102955.81;5038674;28;45311;-70
2022/01/14 14:35:44;;;;;;;;;51.25;39.75;;;;;11.74;46.22;102962.38;5020658;28;46954;-70
2022/01/14 14:38:18;;;;;;;;;48.25;39.00;;;;;12.07;45.97;102967.28;5022687;28;46859;-70
2022/01/14 14:40:47;;;;;;;;;49.75;39.50;;;;;12.39;44.95;102960.44;5038847;28;45517;-72
2022/01/14 14:43:13;;;;;;;;;45.00;37.50;;;;;12.57;44.63;102943.06;5042346;28;45442;-72
2022/01/14 14:45:38;;;;;;;;;50.75;39.50;;;;;12.82;44.62;102955.13;5036142;28;45520;-71
2022/01/14 14:48:04;;;;;;;;;42.25;37.25;;;;;12.95;43.95;102951.25;5035327;28;45420;-72
2022/01/14 14:50:31;;;;;;;;;51.75;38.25;;;;;13.00;43.77;102935.03;5035846;28;45396;-70
2022/01/14 14:53:03;;;;;;;;;51.25;42.00;;;;;13.13;42.95;102937.44;5035393;28;45418;-71
2022/01/14 14:55:31;;;;;;;;;48.25;39.25;;;;;13.22;42.55;102941.75;5023495;28;45563;-70
2022/01/14 14:57:57;;;;;;;;;44.50;37.75;;;;;13.27;42.57;102932.63;5017602;28;48060;-70
2022/01/14 15:00:23;;;;;;;;;49.25;39.00;;;;;13.29;42.76;102923.63;5035685;28;45391;-72
2022/01/14 15:02:50;;;;;;;;;41.00;35.00;;;;;13.32;42.60;102923.56;5021143;28;45403;-71
2022/01/14 15:05:16;;;;;;;;;46.75;37.75;;;;;13.30;41.86;102929.00;5050774;28;47286;-74
2022/01/14 15:07:42;;;;;;;;;46.25;33.00;;;;;13.29;42.57;102929.03;5035082;28;45846;-75
2022/01/14 15:10:11;;;;;;;;;48.75;38.00;;;;;13.22;41.95;102925.59;5011575;28;45644;-75
2022/01/14 15:12:36;;;;;;;;;47.25;38.25;;;;;13.00;42.21;102910.78;5025862;28;45547;-73
2022/01/14 15:15:07;;;;;;;;;44.00;35.25;;;;;13.05;42.20;102920.53;5049906;28;46893;-74
2022/01/14 15:20:17;;;;;;;;;49.75;37.75;;;;;12.92;42.64;102915.47;5034393;28;45348;-73
2022/01/14 15:22:42;;;;;;;;;49.75;39.00;;;;;12.86;42.76;102914.66;5043560;28;45493;-73
2022/01/14 15:25:08;;;;;;;;;47.25;38.75;;;;;12.65;43.17;102898.06;5038282;28;45354;-75
2022/01/14 15:27:34;;;;;;;;;51.50;39.00;;;;;12.58;43.16;102915.25;5034055;28;45396;-74
2022/01/14 15:29:59;;;;;;;;;43.00;37.75;;;;;12.36;44.52;102895.94;5033944;28;45533;-74
2022/01/14 15:32:25;;;;;;;;;49.75;39.25;;;;;12.18;44.04;102893.59;5050838;28;45507;-78
2022/01/14 15:34:50;;;;;;;;;49.25;38.50;;;;;12.10;44.98;102912.53;5055212;28;45393;-75
2022/01/14 15:37:16;;;;;;;;;52.00;39.00;;;;;11.91;44.95;102903.91;5053984;28;46125;-74
2022/01/14 15:39:42;;;;;;;;;50.25;40.00;;;;;11.78;45.30;102902.34;5053901;28;45406;-74
2022/01/14 15:42:07;;;;;;;;;53.25;40.00;;;;;11.67;45.69;102910.53;5062817;28;45355;-74
2022/01/14 15:44:33;;;;;;;;;42.00;37.50;;;;;11.50;46.22;102893.81;5058907;28;45563;-74
2022/01/14 15:46:59;;;;;;;;;51.25;42.50;;;;;11.34;46.64;102894.94;5054713;28;46096;-75
2022/01/14 15:49:24;;;;;;;;;47.00;37.75;;;;;11.24;47.31;102890.63;5054116;28;45476;-75
2022/01/14 15:51:49;;;;;;;;;46.50;40.75;;;;;11.09;47.47;102899.78;5054636;28;45488;-75
2022/01/14 15:54:16;;;;;;;;;52.75;42.25;;;;;10.95;47.63;102899.09;5053509;28;45886;-74
2022/01/14 15:56:42;;;;;;;;;48.00;40.50;;;;;10.78;47.40;102893.06;5053024;28;45541;-74
2022/01/14 15:59:07;;;;;;;;;50.75;39.75;;;;;10.52;48.20;102859.38;5053707;28;45869;-75
2022/01/14 16:01:32;;;;;;;;;52.00;40.75;;;;;10.65;48.37;102894.97;5047935;28;45791;-74
2022/01/14 16:03:58;;;;;;;;;54.00;40.50;;;;;10.58;48.64;102896.84;5054514;28;45359;-75
2022/01/14 16:06:23;;;;;;;;;56.00;44.00;;;;;10.49;49.05;102896.06;5035779;28;47327;-75
2022/01/14 16:08:49;;;;;;;;;52.50;40.00;;;;;10.43;49.13;102896.13;5054102;28;45217;-75
2022/01/14 16:11:14;;;;;;;;;58.00;41.50;;;;;10.34;49.35;102904.28;5053933;28;45318;-74
2022/01/14 16:13:41;;;;;;;;;55.75;40.50;;;;;10.26;49.98;102898.13;5053643;28;45674;-75
2022/01/14 16:16:07;;;;;;;;;52.25;41.75;;;;;10.16;50.00;102895.50;5053472;28;46348;-74
2022/01/14 16:18:33;;;;;;;;;50.75;42.25;;;;;10.14;49.14;102905.31;5053403;28;45455;-75
2022/01/14 16:20:59;;;;;;;;;57.00;43.25;;;;;10.06;49.91;102895.59;5035429;28;45486;-75
2022/01/14 16:23:25;;;;;;;;;50.75;41.50;;;;;9.92;50.51;102885.00;5053483;28;45498;-75
2022/01/14 16:25:52;;;;;;;;;49.00;41.00;;;;;9.75;50.36;102866.41;5054148;28;46194;-75
2022/01/14 16:28:19;;;;;;;;;52.50;40.25;;;;;9.84;50.24;102884.19;5058278;28;45358;-75
2022/01/14 16:30:46;;;;;;;;;56.50;40.50;;;;;9.69;51.09;102873.59;5054715;28;45425;-75
2022/01/14 16:33:13;;;;;;;;;49.75;40.25;;;;;9.79;50.96;102889.56;5053904;28;45516;-74
2022/01/14 16:35:39;;;;;;;;;43.50;39.75;;;;;9.76;50.83;102903.00;5053376;28;45365;-78
2022/01/14 16:38:05;;;;;;;;;50.00;39.75;;;;;9.73;50.95;102902.13;5054079;28;45490;-75
2022/01/14 16:40:31;;;;;;;;;55.75;41.25;;;;;9.63;50.61;102898.63;5035943;28;45552;-76
2022/01/14 16:42:57;;;;;;;;;53.75;40.75;;;;;9.61;50.84;102905.78;5057162;28;45554;-75
2022/01/14 16:45:22;;;;;;;;;44.75;37.50;;;;;9.52;50.99;102899.63;5064833;28;45937;-78
2022/01/14 16:47:49;;;;;;;;;49.50;38.75;;;;;9.38;51.47;102880.97;5055093;28;45478;-75
2022/01/14 16:50:16;;;;;;;;;45.00;38.25;;;;;9.53;51.36;102907.63;5055439;28;45417;-79
2022/01/14 16:52:43;;;;;;;;;49.50;37.25;;;;;9.54;51.75;102909.41;5075618;27;45784;-80
2022/01/14 16:55:10;;;;;;;;;43.25;38.25;;;;;9.35;51.37;102883.69;5053841;28;46315;-78
2022/01/14 16:57:36;;;;;;;;;50.00;39.50;;;;;9.40;51.88;102909.50;5054047;28;45366;-77
2022/01/14 17:00:04;;;;;;;;;57.75;40.25;;;;;9.36;51.62;102902.38;5050615;28;45311;-78